Time;durP1;ratioP1;P1;durP2;ratioP2;P2;SDS_P1;SDS_P2;PMS_P1;PMS_P2;Temp;Humidity;BMP_temperature;BMP_pressure;BME280_temperature;BME280_humidity;BME280_pressure;Samples;Min_cycle;Max_cycle;Signal;HPM_P1;HPM_P2
2021/07/13 00:01:14;;;;;;;;;;;21.30;90.50;;;20.38;86.55;99850.88;5009799;28;20437;-83
2021/07/13 00:03:41;;;;;;;;;;;21.30;90.60;;;20.37;86.74;99846.44;4992832;28;20210;-82
2021/07/13 00:06:08;;;;;;;;;;;21.30;90.70;;;20.36;86.79;99850.31;4991257;28;20386;-82
2021/07/13 00:08:35;;;;;;;;;;;21.30;90.80;;;20.37;86.68;99846.44;4991345;28;20012;-82
2021/07/13 00:11:02;;;;;;;;;;;21.30;90.90;;;20.36;86.77;99847.53;4991420;28;20288;-81
2021/07/13 00:13:29;;;;;;;;;;;21.30;90.80;;;20.34;86.87;99853.31;4991335;28;19933;-82
2021/07/13 00:15:57;;;;;;;;;;;21.30;90.80;;;20.34;87.08;99849.75;4991070;28;19948;-82
2021/07/13 00:18:25;;;;;;;;;;;21.30;91.00;;;20.35;86.97;99851.38;4991410;28;19973;-82
2021/07/13 00:20:52;;;;;;;;;;;21.30;91.00;;;20.34;87.04;99850.56;4991200;28;19925;-83
2021/07/13 00:23:19;;;;;;;;;;;21.20;91.00;;;20.33;87.27;99859.94;4973822;28;19969;-82
2021/07/13 00:25:46;;;;;;;;;;;21.20;91.00;;;20.33;87.29;99853.59;4991119;28;19921;-82
2021/07/13 00:28:13;;;;;;;;;;;21.20;91.10;;;20.33;87.19;99859.13;4990887;28;19930;-82
2021/07/13 00:30:40;;;;;;;;;;;21.20;91.00;;;20.31;87.24;99860.22;4973448;28;19933;-82
2021/07/13 00:33:08;;;;;;;;;;;21.20;91.10;;;20.30;87.16;99866.84;4991027;28;20050;-82
2021/07/13 00:35:35;;;;;;;;;;;21.20;91.10;;;20.30;87.28;99869.59;4990891;28;19925;-83
2021/07/13 00:38:03;;;;;;;;;;;21.20;91.20;;;20.31;87.36;99868.53;4990589;28;19932;-82
2021/07/13 00:40:30;;;;;;;;;;;21.20;91.10;;;20.30;87.50;99872.38;4991027;28;19961;-82
2021/07/13 00:42:57;;;;;;;;;;;21.20;91.20;;;20.29;87.44;99870.69;4991170;28;19961;-82
2021/07/13 00:45:25;;;;;;;;;;;21.20;91.20;;;20.30;87.60;99877.88;4990761;28;19969;-82
2021/07/13 00:47:53;;;;;;;;;;;21.20;91.30;;;20.29;87.68;99887.25;4990276;28;19925;-82
2021/07/13 00:50:23;;;;;;;;;;;21.20;91.40;;;20.29;87.55;99881.75;4990804;28;19922;-83
2021/07/13 00:52:50;;;;;;;;;;;21.20;91.20;;;20.30;87.56;99886.19;4990661;28;19953;-82
2021/07/13 00:55:18;;;;;;;;;;;21.20;91.20;;;20.30;87.50;99882.59;4990583;28;19929;-82
2021/07/13 00:57:45;;;;;;;;;;;21.20;91.00;;;20.29;87.56;99873.44;4990646;28;20020;-82
2021/07/13 01:00:14;;;;;;;;;;;21.30;91.20;;;20.30;87.64;99877.06;4990464;28;19926;-82
2021/07/13 01:02:42;;;;;;;;;;;21.30;91.30;;;20.27;88.07;99870.13;4990612;28;20240;-82
2021/07/13 01:05:13;;;;;;;;;;;21.20;91.40;;;20.27;88.27;99867.34;4972784;28;20098;-82
2021/07/13 01:07:51;;;;;;;;;;;21.20;91.70;;;20.28;88.18;99873.75;4990212;28;19933;-82
2021/07/13 01:10:25;;;;;;;;;;;21.20;92.00;;;20.26;88.28;99865.72;4972650;28;20418;-82
2021/07/13 01:13:06;;;;;;;;;;;21.20;91.80;;;20.25;88.15;99872.31;4972931;28;20394;-83
2021/07/13 01:15:39;;;;;;;;;;;21.20;91.80;;;20.23;88.20;99877.28;4990013;28;19996;-83
2021/07/13 01:18:13;;;;;;;;;;;21.20;91.80;;;20.24;88.18;99884.47;4990079;28;19976;-82
2021/07/13 01:21:09;;;;;;;;;;;21.20;91.80;;;20.24;88.54;99876.19;4972683;28;20021;-82
2021/07/13 01:23:43;;;;;;;;;;;21.20;91.90;;;20.24;88.67;99887.25;4990237;28;20326;-83
2021/07/13 01:26:16;;;;;;;;;;;21.10;92.30;;;20.24;88.74;99883.66;4990344;28;19940;-82
2021/07/13 01:28:47;;;;;;;;;;;21.10;92.20;;;20.23;89.14;99891.09;4990021;28;20012;-82
2021/07/13 01:31:17;;;;;;;;;;;21.10;92.50;;;20.23;89.16;99885.56;4990313;28;19922;-82
2021/07/13 01:33:49;;;;;;;;;;;21.10;92.70;;;20.22;89.23;99881.16;4989973;28;19928;-82
2021/07/13 01:36:20;;;;;;;;;;;21.20;92.90;;;20.20;89.51;99883.34;4989781;28;20016;-82
2021/07/13 01:38:48;;;;;;;;;;;21.10;92.80;;;20.20;89.84;99882.50;4989930;28;19961;-82
2021/07/13 01:41:18;;;;;;;;;;;21.10;93.00;;;20.17;89.90;99872.00;4972470;28;19999;-82
2021/07/13 01:43:48;;;;;;;;;;;21.00;93.10;;;20.16;89.67;99870.31;4989705;28;19937;-82
2021/07/13 01:46:16;;;;;;;;;;;21.10;92.80;;;20.11;89.93;99868.34;4989587;28;19953;-82
2021/07/13 01:48:45;;;;;;;;;;;21.10;92.70;;;20.12;89.55;99870.00;4972329;28;19976;-82
2021/07/13 01:51:13;;;;;;;;;;;21.10;92.60;;;20.12;89.63;99870.00;4989533;28;19932;-83
2021/07/13 01:53:40;;;;;;;;;;;21.00;92.70;;;20.14;89.72;99866.97;4989657;28;20024;-82
2021/07/13 01:56:10;;;;;;;;;;;21.00;93.00;;;20.13;90.11;99862.56;4989234;28;19926;-82
2021/07/13 01:58:38;;;;;;;;;;;21.00;92.90;;;20.14;89.55;99865.03;4989832;28;19976;-82
2021/07/13 02:01:10;;;;;;;;;;;21.00;92.80;;;20.07;89.86;99865.28;4989664;28;20026;-82
2021/07/13 02:03:38;;;;;;;;;;;21.00;92.70;;;20.08;89.77;99863.34;4989801;28;19926;-82
2021/07/13 02:06:06;;;;;;;;;;;21.00;92.90;;;20.09;89.78;99859.50;4989464;28;19953;-82
2021/07/13 02:08:37;;;;;;;;;;;21.00;92.90;;;20.08;89.73;99860.59;4992228;28;19969;-82
2021/07/13 02:11:04;;;;;;;;;;;21.00;93.00;;;20.07;89.71;99848.72;4989756;28;19968;-82
2021/07/13 02:13:31;;;;;;;;;;;21.00;92.90;;;20.07;89.73;99851.47;4971742;28;20024;-82
2021/07/13 02:15:59;;;;;;;;;;;20.90;93.00;;;20.07;89.66;99850.66;4989277;28;20045;-82
2021/07/13 02:18:28;;;;;;;;;;;20.90;93.00;;;20.06;89.69;99843.44;4989252;28;19930;-82
2021/07/13 02:20:55;;;;;;;;;;;20.90;93.20;;;20.06;89.63;99843.44;4989430;28;20439;-82
2021/07/13 02:23:22;;;;;;;;;;;20.90;93.20;;;20.05;89.82;99839.03;4989467;28;20028;-82
2021/07/13 02:25:52;;;;;;;;;;;20.90;93.30;;;20.04;89.79;99840.94;4988995;28;20364;-83
2021/07/13 02:28:25;;;;;;;;;;;20.90;93.40;;;20.02;89.94;99840.38;4989465;28;19980;-82
2021/07/13 02:31:03;;;;;;;;;;;20.90;93.50;;;20.02;89.92;99834.84;4971695;28;19922;-82
2021/07/13 02:33:37;;;;;;;;;;;20.80;93.50;;;20.02;90.04;99845.06;4987957;28;20459;-82
2021/07/13 02:36:12;;;;;;;;;;;20.80;93.50;;;20.00;90.05;99833.47;4988928;28;20040;-82
2021/07/13 02:38:40;;;;;;;;;;;20.90;93.70;;;20.01;89.87;99829.56;4989533;28;19957;-82
2021/07/13 02:41:07;;;;;;;;;;;20.80;93.60;;;19.99;90.08;99829.88;4971644;28;19922;-82
2021/07/13 02:43:36;;;;;;;;;;;20.80;93.70;;;19.98;90.38;99828.19;4989459;28;19989;-82
2021/07/13 02:46:04;;;;;;;;;;;20.80;93.80;;;19.99;90.29;99831.78;4989055;28;19965;-82
2021/07/13 02:48:35;;;;;;;;;;;20.80;93.80;;;19.97;90.23;99825.69;4989232;28;20449;-82
2021/07/13 02:51:03;;;;;;;;;;;20.80;94.00;;;19.98;90.30;99830.13;4989328;28;19921;-82
2021/07/13 02:53:32;;;;;;;;;;;20.80;94.00;;;19.97;90.43;99822.91;4989047;28;19992;-82
2021/07/13 02:56:00;;;;;;;;;;;20.80;94.10;;;19.96;90.46;99824.03;4990114;28;20473;-82
2021/07/13 02:58:28;;;;;;;;;;;20.70;94.10;;;19.96;90.61;99815.75;4992516;28;20271;-82
2021/07/13 03:00:55;;;;;;;;;;;20.70;94.20;;;19.95;90.73;99819.59;4992735;28;20403;-82
2021/07/13 03:03:22;;;;;;;;;;;20.70;94.40;;;19.94;90.56;99817.94;4974841;28;19988;-82
2021/07/13 03:05:52;;;;;;;;;;;20.70;94.30;;;19.92;90.74;99815.44;4992431;28;19962;-82
2021/07/13 03:08:20;;;;;;;;;;;20.70;94.20;;;19.92;90.70;99813.50;4992703;28;20450;-82
2021/07/13 03:10:48;;;;;;;;;;;20.70;94.10;;;19.93;90.63;99811.56;4990903;28;19928;-82
2021/07/13 03:13:15;;;;;;;;;;;20.70;94.20;;;19.92;90.50;99810.75;4992695;28;19925;-82
2021/07/13 03:15:43;;;;;;;;;;;20.70;94.10;;;19.91;90.86;99809.09;4992178;28;19922;-82
2021/07/13 03:18:10;;;;;;;;;;;20.70;94.30;;;19.90;90.72;99807.41;4992272;28;20378;-82
2021/07/13 03:20:38;;;;;;;;;;;20.70;94.30;;;19.89;90.71;99819.53;4990857;28;19975;-82
2021/07/13 03:23:07;;;;;;;;;;;20.70;94.20;;;19.90;90.68;99817.63;4992352;28;19929;-82
2021/07/13 03:25:37;;;;;;;;;;;20.70;94.30;;;19.90;90.80;99818.47;5010921;23;19952;-87
2021/07/13 03:28:05;;;;;;;;;;;20.70;94.40;;;19.89;90.91;99813.19;5013211;28;19987;-86
2021/07/13 03:30:33;;;;;;;;;;;20.70;94.40;;;19.88;90.88;99809.59;5011579;28;20012;-86
2021/07/13 03:33:00;;;;;;;;;;;20.70;94.40;;;19.89;90.68;99815.97;5011421;28;19951;-87
2021/07/13 03:35:29;;;;;;;;;;;20.70;94.50;;;19.88;90.85;99815.13;5008877;28;19968;-85
2021/07/13 03:37:57;;;;;;;;;;;20.60;94.50;;;19.86;90.90;99817.31;4989940;28;19984;-86
2021/07/13 03:40:27;;;;;;;;;;;20.60;94.50;;;19.85;90.88;99815.66;4990734;28;20725;-86
2021/07/13 03:42:57;;;;;;;;;;;20.60;94.50;;;19.84;91.18;99814.00;4990336;28;19933;-86
2021/07/13 03:45:25;;;;;;;;;;;20.60;94.50;;;19.83;91.08;99809.56;4990426;28;19980;-86
2021/07/13 03:47:54;;;;;;;;;;;20.60;94.40;;;19.84;90.83;99811.25;4991595;28;19933;-87
2021/07/13 03:50:22;;;;;;;;;;;20.60;94.50;;;19.84;91.07;99815.94;4991480;28;19960;-86
2021/07/13 03:52:49;;;;;;;;;;;20.60;94.50;;;19.83;90.95;99809.56;4991754;28;20437;-86
2021/07/13 03:55:17;;;;;;;;;;;20.60;94.40;;;19.84;90.98;99813.16;4991265;28;20337;-86
2021/07/13 03:57:45;;;;;;;;;;;20.60;94.60;;;19.83;91.05;99808.72;4991372;28;19957;-86
2021/07/13 04:00:15;;;;;;;;;;;20.60;94.50;;;19.82;91.15;99810.66;4991291;28;19981;-86
2021/07/13 04:02:42;;;;;;;;;;;20.60;94.60;;;19.83;91.06;99808.72;4991153;28;19925;-85
2021/07/13 04:05:10;;;;;;;;;;;20.60;94.50;;;19.82;91.13;99809.81;4988325;28;19926;-86
2021/07/13 04:07:38;;;;;;;;;;;20.60;94.50;;;19.81;91.18;99809.00;4990598;28;19995;-86
2021/07/13 04:10:06;;;;;;;;;;;20.60;94.60;;;19.81;91.32;99809.00;4991347;28;19932;-87
2021/07/13 04:12:33;;;;;;;;;;;20.60;94.80;;;19.81;91.47;99808.16;4991147;28;19929;-86
2021/07/13 04:15:02;;;;;;;;;;;20.60;94.70;;;19.81;91.42;99816.44;4973720;28;19937;-86
2021/07/13 04:17:29;;;;;;;;;;;20.60;94.60;;;19.80;91.35;99812.88;4990625;28;20397;-86
2021/07/13 04:19:56;;;;;;;;;;;20.60;94.60;;;19.80;91.39;99807.34;4991327;28;19926;-86
2021/07/13 04:22:23;;;;;;;;;;;20.60;94.50;;;19.80;91.62;99812.88;4991229;28;19928;-88
2021/07/13 04:24:50;;;;;;;;;;;20.70;94.70;;;19.81;91.40;99813.69;4991202;28;19929;-84
2021/07/13 04:27:17;;;;;;;;;;;20.70;94.70;;;19.81;91.47;99819.22;4990536;28;19925;-81
2021/07/13 04:29:45;;;;;;;;;;;20.70;94.60;;;19.80;91.19;99818.38;4990492;28;19932;-85
2021/07/13 04:32:13;;;;;;;;;;;20.70;94.60;;;19.81;91.33;99820.03;4990971;28;19929;-84
2021/07/13 04:34:40;;;;;;;;;;;20.70;94.70;;;19.80;91.62;99818.38;4990667;28;20023;-85
2021/07/13 04:37:07;;;;;;;;;;;20.70;94.60;;;19.82;91.39;99821.72;4990571;28;20415;-85
2021/07/13 04:39:35;;;;;;;;;;;20.70;94.60;;;19.81;91.62;99824.72;4990672;28;19932;-85
2021/07/13 04:42:02;;;;;;;;;;;20.70;94.70;;;19.80;91.43;99818.38;4990687;28;19922;-84
2021/07/13 04:44:29;;;;;;;;;;;20.70;94.60;;;19.80;91.34;99823.06;4990647;28;19948;-85
2021/07/13 04:46:56;;;;;;;;;;;20.70;94.50;;;19.80;91.51;99818.38;4990203;28;20379;-84
2021/07/13 04:49:25;;;;;;;;;;;20.60;94.60;;;19.81;91.69;99827.50;4990765;28;19925;-85
2021/07/13 04:51:52;;;;;;;;;;;20.70;94.80;;;19.80;91.69;99823.06;4990466;28;20382;-84
2021/07/13 04:54:19;;;;;;;;;;;20.70;95.00;;;19.81;91.78;99830.25;4990638;28;19976;-85
2021/07/13 04:56:46;;;;;;;;;;;20.70;94.90;;;19.80;91.94;99825.81;4972403;28;19954;-85
2021/07/13 04:59:14;;;;;;;;;;;20.70;95.00;;;19.80;91.98;99831.34;4990521;28;20421;-85
2021/07/13 05:01:41;;;;;;;;;;;20.70;95.00;;;19.80;92.40;99825.81;4990388;28;20393;-85
2021/07/13 05:04:08;;;;;;;;;;;20.70;95.30;;;19.80;92.31;99823.91;4990181;28;19925;-85
2021/07/13 05:06:36;;;;;;;;;;;20.70;95.40;;;19.80;92.41;99815.63;4990016;28;19926;-84
2021/07/13 05:09:04;;;;;;;;;;;20.70;95.40;;;19.79;92.64;99822.22;4990166;28;19927;-84
2021/07/13 05:11:33;;;;;;;;;;;20.70;95.60;;;19.79;92.45;99827.75;4990181;28;19957;-85
2021/07/13 05:14:01;;;;;;;;;;;20.70;95.70;;;19.79;92.80;99827.75;4989950;28;19925;-85
2021/07/13 05:16:28;;;;;;;;;;;20.70;95.60;;;19.78;92.85;99823.34;4989799;28;20024;-85
2021/07/13 05:18:55;;;;;;;;;;;20.70;95.70;;;19.79;92.92;99827.75;4971990;28;19925;-85
2021/07/13 05:21:23;;;;;;;;;;;20.70;95.70;;;19.79;92.97;99830.50;4989962;28;19968;-85
2021/07/13 05:23:51;;;;;;;;;;;20.70;95.80;;;19.80;93.03;99834.97;4990195;28;20008;-85
2021/07/13 05:26:18;;;;;;;;;;;20.70;95.70;;;19.80;93.21;99825.81;4989378;28;19961;-83
2021/07/13 05:28:47;;;;;;;;;;;20.70;95.60;;;19.79;93.33;99816.72;4990120;28;19929;-83
2021/07/13 05:31:15;;;;;;;;;;;20.70;95.80;;;19.80;93.03;99826.66;4989758;28;19922;-83
2021/07/13 05:33:42;;;;;;;;;;;20.80;95.80;;;19.80;93.22;99817.53;4989965;28;19925;-82
2021/07/13 05:36:09;;;;;;;;;;;20.80;95.80;;;19.80;93.34;99812.88;4989456;28;19968;-82
2021/07/13 05:38:36;;;;;;;;;;;20.80;95.80;;;19.82;93.53;99820.84;4988973;28;20230;-80
2021/07/13 05:41:05;;;;;;;;;;;20.80;95.80;;;19.81;93.42;99814.50;5001922;28;19931;-80
2021/07/13 05:43:33;;;;;;;;;;;20.80;95.70;;;19.81;93.55;99814.50;5009293;28;20364;-79
2021/07/13 05:46:00;;;;;;;;;;;20.80;95.80;;;19.81;93.44;99825.56;4997189;28;19961;-79
2021/07/13 05:48:27;;;;;;;;;;;20.80;95.50;;;19.83;93.30;99822.53;4989565;28;19957;-80
2021/07/13 05:50:54;;;;;;;;;;;20.80;95.50;;;19.83;93.50;99819.78;4989775;28;20397;-79
2021/07/13 05:53:21;;;;;;;;;;;20.80;95.60;;;19.83;93.35;99826.13;4989614;28;19926;-84
2021/07/13 05:55:49;;;;;;;;;;;20.80;95.60;;;19.84;93.43;99826.97;4971977;28;20474;-84
2021/07/13 05:58:19;;;;;;;;;;;20.80;95.40;;;19.83;93.47;99822.53;4989654;28;20345;-84
2021/07/13 06:00:47;;;;;;;;;;;20.80;95.40;;;19.83;93.37;99823.38;4989453;28;20396;-84
2021/07/13 06:03:14;;;;;;;;;;;20.80;95.20;;;19.82;93.13;99827.25;4989678;28;20011;-84
2021/07/13 06:05:41;;;;;;;;;;;20.80;95.20;;;19.82;93.23;99832.75;4989377;28;19972;-84
2021/07/13 06:08:08;;;;;;;;;;;20.80;95.70;;;19.83;93.25;99828.88;4989280;28;20020;-84
2021/07/13 06:10:35;;;;;;;;;;;20.80;95.60;;;19.82;93.18;99838.28;4986245;28;19922;-84
2021/07/13 06:13:03;;;;;;;;;;;20.80;95.40;;;19.81;93.38;99842.13;4989342;28;19921;-82
2021/07/13 06:15:31;;;;;;;;;;;20.80;95.50;;;19.81;93.29;99835.78;4989193;28;19922;-83
2021/07/13 06:17:58;;;;;;;;;;;20.80;95.50;;;19.82;93.27;99838.28;4989262;28;19925;-85
2021/07/13 06:20:25;;;;;;;;;;;20.80;95.40;;;19.82;93.56;99841.03;4989179;28;20394;-84
2021/07/13 06:22:52;;;;;;;;;;;20.90;95.50;;;19.82;93.69;99843.81;4989481;28;19925;-83
2021/07/13 06:25:19;;;;;;;;;;;20.80;95.60;;;19.82;93.49;99845.72;4989589;28;20094;-84
2021/07/13 06:27:46;;;;;;;;;;;20.80;95.50;;;19.81;93.88;99844.88;4989227;28;20041;-83
2021/07/13 06:30:15;;;;;;;;;;;20.80;95.40;;;19.82;93.95;99845.72;4991311;28;20765;-85
2021/07/13 06:32:43;;;;;;;;;;;20.80;95.40;;;19.83;93.77;99841.88;4993387;28;19930;-84
2021/07/13 06:35:12;;;;;;;;;;;20.90;95.70;;;19.81;93.92;99847.66;4992503;28;19928;-83
2021/07/13 06:37:39;;;;;;;;;;;20.90;95.70;;;19.82;94.10;99835.53;4993073;28;20393;-83
2021/07/13 06:40:07;;;;;;;;;;;20.90;95.60;;;19.85;94.18;99842.44;4992850;28;19932;-83
2021/07/13 06:42:34;;;;;;;;;;;20.90;95.60;;;19.83;94.34;99837.16;4993301;28;20398;-84
2021/07/13 06:45:01;;;;;;;;;;;20.90;95.80;;;19.84;94.27;99849.06;4975316;28;19925;-84
2021/07/13 06:47:28;;;;;;;;;;;20.90;96.00;;;19.85;94.79;99846.03;4992732;28;20053;-83
2021/07/13 06:49:57;;;;;;;;;;;20.90;96.60;;;19.85;94.72;99840.50;4993038;28;20533;-82
2021/07/13 06:52:24;;;;;;;;;;;21.00;96.00;;;19.86;95.02;99835.84;4992979;28;20029;-83
2021/07/13 06:54:51;;;;;;;;;;;21.00;96.20;;;19.86;95.22;99833.91;4993141;28;19922;-83
2021/07/13 06:57:18;;;;;;;;;;;21.00;96.50;;;19.87;95.41;99840.25;4974867;28;19926;-84
2021/07/13 06:59:45;;;;;;;;;;;21.00;96.00;;;19.87;95.40;99824.50;4993112;28;19921;-85
2021/07/13 07:02:12;;;;;;;;;;;21.00;96.10;;;19.89;95.63;99838.88;4990610;28;20024;-82
2021/07/13 07:04:40;;;;;;;;;;;21.00;95.80;;;19.89;95.60;99833.34;4993048;28;20544;-83
2021/07/13 07:07:08;;;;;;;;;;;21.10;96.30;;;19.89;95.39;99833.34;4992399;28;19926;-85
2021/07/13 07:09:35;;;;;;;;;;;21.10;96.30;;;19.91;95.42;99846.91;4990180;28;19922;-82
2021/07/13 07:12:02;;;;;;;;;;;21.10;96.00;;;19.92;95.53;99848.59;4993229;28;20378;-83
2021/07/13 07:14:29;;;;;;;;;;;21.00;95.80;;;19.92;95.68;99848.59;4992480;28;20394;-84
2021/07/13 07:16:56;;;;;;;;;;;21.10;96.10;;;19.92;95.83;99854.09;4992305;28;19981;-84
2021/07/13 07:19:24;;;;;;;;;;;21.10;95.90;;;19.92;95.72;99865.16;4992442;28;20060;-83
2021/07/13 07:21:51;;;;;;;;;;;21.10;96.00;;;19.94;95.43;99868.47;4974969;28;20382;-83
2021/07/13 07:24:20;;;;;;;;;;;21.10;95.70;;;19.95;95.66;99872.06;4992279;28;20016;-83
2021/07/13 07:26:47;;;;;;;;;;;21.10;95.60;;;19.94;95.51;99873.19;4991963;28;19930;-83
2021/07/13 07:29:14;;;;;;;;;;;21.10;95.60;;;19.95;95.95;99877.59;5007057;28;20333;-84
2021/07/13 07:31:41;;;;;;;;;;;21.10;95.60;;;19.95;95.78;99875.66;5011824;28;19925;-83
2021/07/13 07:34:08;;;;;;;;;;;21.20;95.60;;;19.97;95.89;99875.41;5012035;28;19932;-84
2021/07/13 07:36:35;;;;;;;;;;;21.20;96.10;;;19.97;95.92;99878.16;4993637;28;19925;-83
2021/07/13 07:39:03;;;;;;;;;;;21.20;96.00;;;19.99;95.85;99881.50;4994362;28;19976;-82
2021/07/13 07:41:32;;;;;;;;;;;21.20;95.90;;;19.98;96.14;99874.31;5010859;28;19929;-83
2021/07/13 07:44:00;;;;;;;;;;;21.20;95.90;;;19.98;96.21;99868.78;5011761;28;19921;-82
2021/07/13 07:46:29;;;;;;;;;;;21.20;95.90;;;19.99;96.65;99873.22;5011768;28;19956;-83
2021/07/13 07:48:58;;;;;;;;;;;21.30;95.90;;;19.99;96.62;99870.44;4993977;28;20362;-83
2021/07/13 07:51:25;;;;;;;;;;;21.30;95.50;;;19.99;96.45;99868.53;5011511;28;20414;-82
2021/07/13 07:53:54;;;;;;;;;;;21.30;95.90;;;20.00;96.75;99863.84;5011414;28;20016;-83
2021/07/13 07:56:21;;;;;;;;;;;21.40;95.40;;;20.02;96.51;99859.72;4993327;28;20275;-82
2021/07/13 07:58:50;;;;;;;;;;;21.40;95.60;;;20.04;96.31;99853.94;5011363;28;19992;-82
2021/07/13 08:01:18;;;;;;;;;;;21.40;95.20;;;20.04;96.32;99857.50;5011333;28;19926;-82
2021/07/13 08:03:45;;;;;;;;;;;21.50;95.30;;;20.06;96.50;99860.00;5011079;28;19979;-82
2021/07/13 08:06:12;;;;;;;;;;;21.50;95.10;;;20.07;96.36;99850.66;5011181;28;19931;-83
2021/07/13 08:08:39;;;;;;;;;;;21.50;95.30;;;20.07;96.46;99848.72;5008332;28;19971;-83
2021/07/13 08:11:06;;;;;;;;;;;21.50;95.40;;;20.09;96.58;99853.97;4989680;28;19930;-82
2021/07/13 08:13:33;;;;;;;;;;;21.50;95.70;;;20.10;96.92;99862.00;4992034;28;20046;-81
2021/07/13 08:16:01;;;;;;;;;;;21.60;95.50;;;20.10;97.01;99858.38;4991211;28;19933;-82
2021/07/13 08:18:29;;;;;;;;;;;21.50;95.00;;;20.10;96.99;99856.47;4991680;28;19981;-85
2021/07/13 08:20:56;;;;;;;;;;;21.60;95.10;;;20.12;97.00;99853.44;4990703;28;19976;-83
2021/07/13 08:23:23;;;;;;;;;;;21.60;95.10;;;20.12;97.23;99847.91;4991473;28;20627;-83
2021/07/13 08:25:50;;;;;;;;;;;21.60;94.50;;;20.14;97.73;99840.19;4991204;28;20000;-83
2021/07/13 08:28:17;;;;;;;;;;;21.70;94.80;;;20.16;97.56;99843.50;4991160;28;19922;-83
2021/07/13 08:30:45;;;;;;;;;;;21.80;94.40;;;20.18;97.34;99846.00;4991471;28;20032;-83
2021/07/13 08:33:13;;;;;;;;;;;21.80;94.20;;;20.20;97.58;99847.44;4991024;28;20326;-83
2021/07/13 08:35:40;;;;;;;;;;;21.80;95.10;;;20.20;97.86;99850.19;4990894;28;20053;-82
2021/07/13 08:38:07;;;;;;;;;;;21.80;94.60;;;20.22;97.71;99855.44;4990873;28;19926;-82
2021/07/13 08:40:35;;;;;;;;;;;21.80;94.50;;;20.21;97.80;99840.78;4973758;28;19926;-82
2021/07/13 08:43:02;;;;;;;;;;;21.80;94.50;;;20.22;97.39;99841.63;4973745;28;20016;-85
2021/07/13 08:45:30;;;;;;;;;;;21.80;94.30;;;20.23;97.31;99844.13;4991683;28;19956;-82
2021/07/13 08:47:57;;;;;;;;;;;21.80;94.10;;;20.23;97.64;99838.59;5010589;28;19927;-82
2021/07/13 08:50:26;;;;;;;;;;;21.80;94.00;;;20.24;97.31;99834.75;5010505;28;19925;-83
2021/07/13 08:52:53;;;;;;;;;;;21.80;93.80;;;20.26;97.42;99831.72;5010060;28;19925;-82
2021/07/13 08:55:20;;;;;;;;;;;21.90;94.10;;;20.28;97.65;99835.88;5009955;28;19956;-82
2021/07/13 08:57:47;;;;;;;;;;;21.90;93.90;;;20.28;97.43;99835.88;5010510;28;19984;-83
2021/07/13 09:00:16;;;;;;;;;;;21.90;93.70;;;20.30;97.58;99838.38;5010498;28;19987;-83
2021/07/13 09:03:06;;;;;;;;;;;22.20;94.10;;;20.31;98.23;99829.84;5010228;28;19967;-81
2021/07/13 09:05:44;;;;;;;;;;;22.00;94.20;;;20.34;98.31;99833.16;5010335;28;20020;-84
2021/07/13 09:08:16;;;;;;;;;;;22.00;94.10;;;20.35;98.20;99821.00;5010096;28;20456;-82
2021/07/13 09:11:08;;;;;;;;;;;22.10;94.00;;;20.36;98.15;99820.72;5010350;28;20382;-83
2021/07/13 09:13:37;;;;;;;;;;;22.10;93.60;;;20.39;98.77;99831.25;5010104;28;19928;-85
2021/07/13 09:16:07;;;;;;;;;;;22.30;94.70;;;20.42;98.42;99829.88;5009952;28;20028;-85
2021/07/13 09:18:35;;;;;;;;;;;22.30;93.90;;;20.43;98.53;99826.03;5010005;28;19925;-85
2021/07/13 09:21:08;;;;;;;;;;;22.30;93.30;;;20.45;98.42;99835.72;5010130;28;20393;-86
2021/07/13 09:23:35;;;;;;;;;;;22.40;93.70;;;20.47;98.18;99827.16;5009825;28;20382;-84
2021/07/13 09:26:02;;;;;;;;;;;22.40;92.70;;;20.48;97.75;99837.94;5009668;28;19921;-85
2021/07/13 09:28:30;;;;;;;;;;;22.40;92.70;;;20.50;97.87;99838.53;5010030;28;20023;-84
2021/07/13 09:30:58;;;;;;;;;;;22.40;93.00;;;20.51;97.82;99829.09;5010151;28;20429;-84
2021/07/13 09:33:27;;;;;;;;;;;22.40;92.60;;;20.51;97.55;99834.63;4992262;28;20634;-85
2021/07/13 09:36:08;;;;;;;;;;;22.40;92.00;;;20.52;97.26;99832.69;5023996;23;19936;-85
2021/07/13 09:38:38;;;;;;;;;;;22.40;92.40;;;20.56;97.49;99838.53;5006971;28;19992;-82
2021/07/13 09:41:12;;;;;;;;;;;22.40;93.30;;;20.56;98.49;99842.16;5007924;28;19925;-82
2021/07/13 09:43:51;;;;;;;;;;;22.40;93.30;;;20.57;98.27;99838.25;5009738;28;19925;-81
2021/07/13 09:46:37;;;;;;;;;;;22.40;92.80;;;20.60;97.73;99846.06;5010765;28;19932;-81
2021/07/13 09:49:15;;;;;;;;;;;22.50;92.80;;;20.60;97.05;99847.97;5029633;28;19925;-85
2021/07/13 09:51:46;;;;;;;;;;;22.40;92.80;;;20.62;97.41;99846.63;5029112;28;20459;-84
2021/07/13 09:54:34;;;;;;;;;;;22.40;93.00;;;20.63;97.34;99847.47;5029292;28;19921;-83
2021/07/13 09:57:02;;;;;;;;;;;22.50;92.80;;;20.65;97.99;99840.53;5028402;28;19925;-83
2021/07/13 09:59:29;;;;;;;;;;;22.60;92.70;;;20.66;98.61;99846.94;5029463;28;20644;-83
2021/07/13 10:01:56;;;;;;;;;;;22.60;92.40;;;20.69;99.50;99838.09;5029411;28;19964;-83
2021/07/13 10:04:23;;;;;;;;;;;22.70;92.80;;;20.70;98.53;99840.59;5019206;28;20016;-83
2021/07/13 10:06:53;;;;;;;;;;;22.80;91.70;;;20.74;98.38;99845.59;5012978;28;20023;-83
2021/07/13 10:09:22;;;;;;;;;;;22.90;91.80;;;20.77;98.46;99842.28;5012291;28;19984;-83
2021/07/13 10:11:49;;;;;;;;;;;23.00;91.80;;;20.81;99.58;99829.56;5013615;28;19932;-83
2021/07/13 10:14:17;;;;;;;;;;;23.10;92.10;;;20.82;98.56;99834.00;4995665;28;19930;-83
2021/07/13 10:16:44;;;;;;;;;;;23.10;92.00;;;20.85;98.97;99833.47;5012716;28;19961;-83
2021/07/13 10:19:11;;;;;;;;;;;23.10;91.40;;;20.85;98.21;99833.47;5016522;28;19920;-83
2021/07/13 10:21:38;;;;;;;;;;;23.10;90.60;;;20.88;97.49;99832.91;5014673;28;19948;-83
2021/07/13 10:24:07;;;;;;;;;;;23.20;90.10;;;20.92;97.64;99839.56;5033215;28;19968;-83
2021/07/13 10:26:45;;;;;;;;;;;23.20;90.40;;;20.96;97.93;99839.88;5032134;28;19924;-83
2021/07/13 10:29:38;;;;;;;;;;;23.30;90.10;;;20.98;97.17;99832.13;5033200;28;19964;-83
2021/07/13 10:32:07;;;;;;;;;;;23.40;88.80;;;21.00;98.01;99836.31;5032796;28;19960;-83
2021/07/13 10:34:50;;;;;;;;;;;23.40;89.60;;;21.01;97.18;99832.41;5032958;28;19931;-83
2021/07/13 10:37:23;;;;;;;;;;;23.40;89.10;;;21.04;98.83;99837.44;5013726;28;20415;-83
2021/07/13 10:39:52;;;;;;;;;;;23.40;89.60;;;21.05;98.19;99836.31;5012713;28;19929;-83
2021/07/13 10:42:52;;;;;;;;;;;23.40;89.50;;;21.05;96.72;99839.06;4995249;28;19956;-83
2021/07/13 10:45:24;;;;;;;;;;;23.30;88.40;;;21.06;96.65;99851.00;5013042;28;20287;-83
2021/07/13 10:48:03;;;;;;;;;;;23.30;89.20;;;21.06;95.83;99839.94;5012321;28;20016;-83
2021/07/13 10:50:47;;;;;;;;;;;23.20;87.90;;;21.05;95.25;99844.59;5012981;28;20737;-83
2021/07/13 10:53:16;;;;;;;;;;;23.20;87.70;;;21.06;94.71;99848.22;5012928;28;19983;-83
2021/07/13 10:55:56;;;;;;;;;;;23.10;88.60;;;21.05;93.50;99858.44;5012696;28;19921;-83
2021/07/13 10:58:30;;;;;;;;;;;23.10;88.30;;;21.06;94.34;99840.75;5012680;28;20030;-83
2021/07/13 11:01:09;;;;;;;;;;;23.10;88.60;;;21.08;94.75;99848.78;5012514;28;19925;-83
2021/07/13 11:04:02;;;;;;;;;;;23.20;89.10;;;21.08;94.39;99857.91;5012995;28;19925;-83
2021/07/13 11:06:46;;;;;;;;;;;23.10;89.00;;;21.09;94.38;99851.28;5011715;28;19979;-83
2021/07/13 11:09:32;;;;;;;;;;;23.10;88.80;;;21.09;94.03;99831.91;5012238;28;19925;-83
2021/07/13 11:12:17;;;;;;;;;;;23.10;87.90;;;21.09;93.47;99831.91;5012311;28;19921;-83
2021/07/13 11:14:49;;;;;;;;;;;23.10;88.30;;;21.11;93.58;99834.38;5012397;28;19933;-83
2021/07/13 11:17:20;;;;;;;;;;;23.10;88.10;;;21.13;93.64;99845.19;5010212;28;19979;-83
2021/07/13 11:19:47;;;;;;;;;;;23.20;88.20;;;21.12;92.86;99840.78;4994629;28;19925;-79
2021/07/13 11:22:17;;;;;;;;;;;23.20;87.50;;;21.15;92.71;99851.28;4999186;28;19929;-82
2021/07/13 11:24:44;;;;;;;;;;;23.20;87.20;;;21.15;92.59;99846.59;5032079;28;19927;-82
2021/07/13 11:27:12;;;;;;;;;;;23.20;87.50;;;21.16;92.63;99852.97;5031348;28;19929;-82